sensor_id;sensor_type;location;lat;lon;timestamp;pressure;altitude;pressure_sealevel;temperature;humidity
62946;BME280;52164;52.212;-1.010;2022-08-01T00:00:25;100963.42;;;17.61;56.54
62946;BME280;52164;52.212;-1.010;2022-08-01T00:02:50;100963.85;;;17.58;56.83
62946;BME280;52164;52.212;-1.010;2022-08-01T00:05:16;100963.17;;;17.56;56.89
62946;BME280;52164;52.212;-1.010;2022-08-01T00:07:41;100962.45;;;17.56;56.73
62946;BME280;52164;52.212;-1.010;2022-08-01T00:10:09;100964.31;;;17.54;56.82
62946;BME280;52164;52.212;-1.010;2022-08-01T00:12:35;100965.77;;;17.54;57.02
62946;BME280;52164;52.212;-1.010;2022-08-01T00:15:02;100967.42;;;17.53;57.26
62946;BME280;52164;52.212;-1.010;2022-08-01T00:17:28;100969.08;;;17.51;57.09
62946;BME280;52164;52.212;-1.010;2022-08-01T00:19:53;100974.67;;;17.51;57.39
62946;BME280;52164;52.212;-1.010;2022-08-01T00:22:19;100976.11;;;17.51;57.75
62946;BME280;52164;52.212;-1.010;2022-08-01T00:24:44;100976.89;;;17.49;58.00
62946;BME280;52164;52.212;-1.010;2022-08-01T00:27:10;100978.03;;;17.46;57.67
62946;BME280;52164;52.212;-1.010;2022-08-01T00:29:35;100975.92;;;17.42;57.25
62946;BME280;52164;52.212;-1.010;2022-08-01T00:32:01;100974.92;;;17.38;57.25
62946;BME280;52164;52.212;-1.010;2022-08-01T00:34:26;100977.15;;;17.36;57.07
62946;BME280;52164;52.212;-1.010;2022-08-01T00:36:52;100969.65;;;17.32;56.94
62946;BME280;52164;52.212;-1.010;2022-08-01T00:39:17;100972.45;;;17.27;56.67
62946;BME280;52164;52.212;-1.010;2022-08-01T00:41:42;100970.23;;;17.21;56.58
62946;BME280;52164;52.212;-1.010;2022-08-01T00:44:08;100968.25;;;17.12;56.59
62946;BME280;52164;52.212;-1.010;2022-08-01T00:46:34;100974.17;;;17.04;56.88
62946;BME280;52164;52.212;-1.010;2022-08-01T00:49:00;100976.27;;;16.98;56.92
62946;BME280;52164;52.212;-1.010;2022-08-01T00:51:27;100980.17;;;16.92;57.05
62946;BME280;52164;52.212;-1.010;2022-08-01T00:53:53;100989.80;;;16.88;57.12
62946;BME280;52164;52.212;-1.010;2022-08-01T00:56:21;100998.27;;;16.86;57.10
62946;BME280;52164;52.212;-1.010;2022-08-01T00:58:48;101001.69;;;16.86;57.21
62946;BME280;52164;52.212;-1.010;2022-08-01T01:01:14;100999.95;;;16.83;56.99
62946;BME280;52164;52.212;-1.010;2022-08-01T01:03:39;100992.11;;;16.78;57.31
62946;BME280;52164;52.212;-1.010;2022-08-01T01:09:11;100984.77;;;16.75;57.45
62946;BME280;52164;52.212;-1.010;2022-08-01T01:11:48;100983.70;;;16.75;57.47
62946;BME280;52164;52.212;-1.010;2022-08-01T01:14:30;100982.08;;;16.75;57.42
62946;BME280;52164;52.212;-1.010;2022-08-01T01:16:58;100979.55;;;16.75;57.72
62946;BME280;52164;52.212;-1.010;2022-08-01T01:19:29;100977.27;;;16.72;57.61
62946;BME280;52164;52.212;-1.010;2022-08-01T01:22:53;100979.91;;;16.66;57.63
62946;BME280;52164;52.212;-1.010;2022-08-01T01:25:19;100983.58;;;16.61;57.60
62946;BME280;52164;52.212;-1.010;2022-08-01T01:30:28;100977.50;;;16.48;57.72
62946;BME280;52164;52.212;-1.010;2022-08-01T01:32:58;100977.05;;;16.42;57.95
62946;BME280;52164;52.212;-1.010;2022-08-01T01:35:28;100981.98;;;16.38;58.18
62946;BME280;52164;52.212;-1.010;2022-08-01T01:38:01;100978.10;;;16.32;57.98
62946;BME280;52164;52.212;-1.010;2022-08-01T01:40:30;100969.89;;;16.29;58.13
62946;BME280;52164;52.212;-1.010;2022-08-01T01:42:56;100971.73;;;16.26;58.07
62946;BME280;52164;52.212;-1.010;2022-08-01T01:45:24;100972.50;;;16.23;58.25
62946;BME280;52164;52.212;-1.010;2022-08-01T01:47:50;100972.37;;;16.20;58.41
62946;BME280;52164;52.212;-1.010;2022-08-01T01:50:21;100973.83;;;16.18;58.42
62946;BME280;52164;52.212;-1.010;2022-08-01T01:52:48;100973.85;;;16.17;58.41
62946;BME280;52164;52.212;-1.010;2022-08-01T01:55:15;100973.84;;;16.17;58.50
62946;BME280;52164;52.212;-1.010;2022-08-01T01:57:42;100968.80;;;16.17;58.45
62946;BME280;52164;52.212;-1.010;2022-08-01T02:00:11;100966.27;;;16.18;58.40
62946;BME280;52164;52.212;-1.010;2022-08-01T02:02:37;100964.65;;;16.18;58.44
62946;BME280;52164;52.212;-1.010;2022-08-01T02:05:05;100964.33;;;16.17;58.67
62946;BME280;52164;52.212;-1.010;2022-08-01T02:07:33;100969.19;;;16.16;58.75
62946;BME280;52164;52.212;-1.010;2022-08-01T02:10:00;100973.68;;;16.16;59.00
62946;BME280;52164;52.212;-1.010;2022-08-01T02:12:29;100972.58;;;16.18;59.07
62946;BME280;52164;52.212;-1.010;2022-08-01T02:14:58;100977.23;;;16.20;58.88
62946;BME280;52164;52.212;-1.010;2022-08-01T02:17:25;100974.19;;;16.18;58.54
62946;BME280;52164;52.212;-1.010;2022-08-01T02:19:52;100967.62;;;16.13;58.73
62946;BME280;52164;52.212;-1.010;2022-08-01T02:22:27;100965.14;;;16.10;58.79
62946;BME280;52164;52.212;-1.010;2022-08-01T02:27:24;100967.75;;;16.16;58.82
62946;BME280;52164;52.212;-1.010;2022-08-01T02:30:01;100970.03;;;16.19;58.85
62946;BME280;52164;52.212;-1.010;2022-08-01T02:32:36;100969.11;;;16.20;58.78
62946;BME280;52164;52.212;-1.010;2022-08-01T02:35:02;100972.89;;;16.21;58.81
62946;BME280;52164;52.212;-1.010;2022-08-01T02:37:34;100967.73;;;16.16;58.71
62946;BME280;52164;52.212;-1.010;2022-08-01T02:40:02;100966.75;;;16.12;58.74
62946;BME280;52164;52.212;-1.010;2022-08-01T02:42:29;100965.55;;;16.07;58.87
62946;BME280;52164;52.212;-1.010;2022-08-01T02:44:57;100968.30;;;16.04;58.81
62946;BME280;52164;52.212;-1.010;2022-08-01T02:47:23;100968.02;;;15.99;58.69
62946;BME280;52164;52.212;-1.010;2022-08-01T02:49:51;100967.20;;;15.93;58.83
62946;BME280;52164;52.212;-1.010;2022-08-01T02:52:20;100970.31;;;15.89;59.02
62946;BME280;52164;52.212;-1.010;2022-08-01T02:54:50;100976.64;;;15.87;59.26
62946;BME280;52164;52.212;-1.010;2022-08-01T02:57:17;100973.27;;;15.85;59.10
62946;BME280;52164;52.212;-1.010;2022-08-01T02:59:45;100974.36;;;15.83;59.14
62946;BME280;52164;52.212;-1.010;2022-08-01T03:02:12;100967.39;;;15.81;59.11
62946;BME280;52164;52.212;-1.010;2022-08-01T03:04:40;100965.23;;;15.81;59.15
62946;BME280;52164;52.212;-1.010;2022-08-01T03:07:08;100964.88;;;15.79;59.16
62946;BME280;52164;52.212;-1.010;2022-08-01T03:09:38;100968.13;;;15.78;59.23
62946;BME280;52164;52.212;-1.010;2022-08-01T03:12:07;100966.14;;;15.76;59.22
62946;BME280;52164;52.212;-1.010;2022-08-01T03:14:36;100971.22;;;15.74;59.03
62946;BME280;52164;52.212;-1.010;2022-08-01T03:17:04;100969.48;;;15.70;59.11
62946;BME280;52164;52.212;-1.010;2022-08-01T03:19:31;100970.07;;;15.67;59.24
62946;BME280;52164;52.212;-1.010;2022-08-01T03:21:59;100966.11;;;15.65;59.35
62946;BME280;52164;52.212;-1.010;2022-08-01T03:24:28;100966.31;;;15.64;59.19
62946;BME280;52164;52.212;-1.010;2022-08-01T03:26:56;100966.31;;;15.64;59.21
62946;BME280;52164;52.212;-1.010;2022-08-01T03:29:25;100966.70;;;15.62;59.20
62946;BME280;52164;52.212;-1.010;2022-08-01T03:31:53;100970.86;;;15.60;59.20
62946;BME280;52164;52.212;-1.010;2022-08-01T03:34:18;100972.34;;;15.58;59.20
62946;BME280;52164;52.212;-1.010;2022-08-01T03:36:53;100970.41;;;15.55;59.32
62946;BME280;52164;52.212;-1.010;2022-08-01T03:39:22;100966.66;;;15.52;59.41
62946;BME280;52164;52.212;-1.010;2022-08-01T03:41:55;100969.55;;;15.51;59.42
62946;BME280;52164;52.212;-1.010;2022-08-01T03:44:26;100969.77;;;15.48;59.49
62946;BME280;52164;52.212;-1.010;2022-08-01T03:47:04;100966.39;;;15.45;59.62
62946;BME280;52164;52.212;-1.010;2022-08-01T03:49:33;100964.80;;;15.43;59.49
62946;BME280;52164;52.212;-1.010;2022-08-01T03:52:03;100968.45;;;15.39;59.61
62946;BME280;52164;52.212;-1.010;2022-08-01T03:54:32;100975.48;;;15.37;59.73
62946;BME280;52164;52.212;-1.010;2022-08-01T03:57:00;100972.07;;;15.37;59.81
62946;BME280;52164;52.212;-1.010;2022-08-01T03:59:28;100964.33;;;15.37;59.87
62946;BME280;52164;52.212;-1.010;2022-08-01T04:01:55;100967.91;;;15.38;60.10
62946;BME280;52164;52.212;-1.010;2022-08-01T04:04:21;100969.14;;;15.41;60.10
62946;BME280;52164;52.212;-1.010;2022-08-01T04:06:47;100965.51;;;15.44;60.08
62946;BME280;52164;52.212;-1.010;2022-08-01T04:09:16;100970.86;;;15.47;59.93
62946;BME280;52164;52.212;-1.010;2022-08-01T04:11:41;100972.84;;;15.46;59.99
62946;BME280;52164;52.212;-1.010;2022-08-01T04:14:07;100972.52;;;15.45;59.99
62946;BME280;52164;52.212;-1.010;2022-08-01T04:16:33;100975.95;;;15.43;60.08
62946;BME280;52164;52.212;-1.010;2022-08-01T04:19:00;100977.59;;;15.42;60.04
62946;BME280;52164;52.212;-1.010;2022-08-01T04:21:26;100983.55;;;15.38;60.07
62946;BME280;52164;52.212;-1.010;2022-08-01T04:23:56;100985.91;;;15.37;60.12
62946;BME280;52164;52.212;-1.010;2022-08-01T04:26:24;100987.38;;;15.36;60.13
62946;BME280;52164;52.212;-1.010;2022-08-01T04:28:52;100988.45;;;15.35;60.27
62946;BME280;52164;52.212;-1.010;2022-08-01T04:31:20;100986.67;;;15.35;60.32
62946;BME280;52164;52.212;-1.010;2022-08-01T04:33:49;100986.67;;;15.34;60.28
62946;BME280;52164;52.212;-1.010;2022-08-01T04:36:18;100986.67;;;15.34;60.32
62946;BME280;52164;52.212;-1.010;2022-08-01T04:38:48;100979.84;;;15.34;60.37
62946;BME280;52164;52.212;-1.010;2022-08-01T04:41:15;100974.81;;;15.34;60.42
62946;BME280;52164;52.212;-1.010;2022-08-01T04:43:42;100969.79;;;15.31;60.54
62946;BME280;52164;52.212;-1.010;2022-08-01T04:46:08;100970.00;;;15.30;60.47
62946;BME280;52164;52.212;-1.010;2022-08-01T04:48:37;100972.90;;;15.28;60.42
62946;BME280;52164;52.212;-1.010;2022-08-01T04:51:04;100976.71;;;15.25;60.64
62946;BME280;52164;52.212;-1.010;2022-08-01T04:53:36;100981.55;;;15.24;60.73
62946;BME280;52164;52.212;-1.010;2022-08-01T04:56:02;100982.63;;;15.26;60.73
62946;BME280;52164;52.212;-1.010;2022-08-01T04:58:27;100982.27;;;15.27;60.73
62946;BME280;52164;52.212;-1.010;2022-08-01T05:00:53;100979.17;;;15.29;60.84
62946;BME280;52164;52.212;-1.010;2022-08-01T05:03:18;100980.74;;;15.33;60.87
62946;BME280;52164;52.212;-1.010;2022-08-01T05:05:44;100988.27;;;15.37;60.97
62946;BME280;52164;52.212;-1.010;2022-08-01T05:08:10;100989.46;;;15.41;61.03
62946;BME280;52164;52.212;-1.010;2022-08-01T05:10:35;100989.76;;;15.46;61.01
62946;BME280;52164;52.212;-1.010;2022-08-01T05:13:01;100989.33;;;15.51;60.78
62946;BME280;52164;52.212;-1.010;2022-08-01T05:15:26;100992.17;;;15.55;60.76
62946;BME280;52164;52.212;-1.010;2022-08-01T05:17:52;100990.13;;;15.59;60.64
62946;BME280;52164;52.212;-1.010;2022-08-01T05:20:18;100986.10;;;15.64;60.57
62946;BME280;52164;52.212;-1.010;2022-08-01T05:22:43;100986.61;;;15.67;60.45
62946;BME280;52164;52.212;-1.010;2022-08-01T05:25:09;100985.85;;;15.70;60.72
62946;BME280;52164;52.212;-1.010;2022-08-01T05:27:35;100987.40;;;15.75;60.65
62946;BME280;52164;52.212;-1.010;2022-08-01T05:30:07;100989.35;;;15.79;60.53
62946;BME280;52164;52.212;-1.010;2022-08-01T05:32:33;100989.50;;;15.83;60.47
62946;BME280;52164;52.212;-1.010;2022-08-01T05:34:59;100989.62;;;15.86;60.12
62946;BME280;52164;52.212;-1.010;2022-08-01T05:37:24;100986.73;;;15.86;60.27
62946;BME280;52164;52.212;-1.010;2022-08-01T05:39:50;100989.77;;;15.88;60.18
62946;BME280;52164;52.212;-1.010;2022-08-01T05:42:16;100987.60;;;15.89;60.08
62946;BME280;52164;52.212;-1.010;2022-08-01T05:44:41;100987.75;;;15.91;59.88
62946;BME280;52164;52.212;-1.010;2022-08-01T05:47:06;100985.04;;;15.91;59.93
62946;BME280;52164;52.212;-1.010;2022-08-01T05:49:32;100990.59;;;15.93;59.96
62946;BME280;52164;52.212;-1.010;2022-08-01T05:51:58;100993.81;;;15.95;59.88
62946;BME280;52164;52.212;-1.010;2022-08-01T05:54:24;100996.33;;;15.96;59.86
62946;BME280;52164;52.212;-1.010;2022-08-01T05:56:50;100994.89;;;15.95;59.75
62946;BME280;52164;52.212;-1.010;2022-08-01T05:59:15;100991.83;;;15.95;59.90
62946;BME280;52164;52.212;-1.010;2022-08-01T06:01:41;100992.33;;;15.98;59.85
62946;BME280;52164;52.212;-1.010;2022-08-01T06:04:06;100987.95;;;16.01;59.85
62946;BME280;52164;52.212;-1.010;2022-08-01T06:06:32;100985.02;;;16.05;59.98
62946;BME280;52164;52.212;-1.010;2022-08-01T06:08:57;100981.02;;;16.08;59.88
62946;BME280;52164;52.212;-1.010;2022-08-01T06:11:23;100988.20;;;16.09;59.61
62946;BME280;52164;52.212;-1.010;2022-08-01T06:13:48;100995.58;;;16.09;59.46
62946;BME280;52164;52.212;-1.010;2022-08-01T06:16:15;100996.48;;;16.10;59.54
62946;BME280;52164;52.212;-1.010;2022-08-01T06:18:41;100996.95;;;16.14;59.56
62946;BME280;52164;52.212;-1.010;2022-08-01T06:21:07;100994.55;;;16.18;59.45
62946;BME280;52164;52.212;-1.010;2022-08-01T06:23:32;100996.66;;;16.20;59.36
62946;BME280;52164;52.212;-1.010;2022-08-01T06:25:58;101001.45;;;16.25;59.31
62946;BME280;52164;52.212;-1.010;2022-08-01T06:28:24;101007.33;;;16.30;59.14
62946;BME280;52164;52.212;-1.010;2022-08-01T06:30:49;101003.00;;;16.30;58.95
62946;BME280;52164;52.212;-1.010;2022-08-01T06:33:15;101006.73;;;16.33;58.88
62946;BME280;52164;52.212;-1.010;2022-08-01T06:35:41;101008.14;;;16.35;58.78
62946;BME280;52164;52.212;-1.010;2022-08-01T06:38:06;101005.91;;;16.40;58.66
62946;BME280;52164;52.212;-1.010;2022-08-01T06:40:32;101001.52;;;16.45;58.68
62946;BME280;52164;52.212;-1.010;2022-08-01T06:42:58;101001.27;;;16.47;58.54
62946;BME280;52164;52.212;-1.010;2022-08-01T06:45:24;101002.54;;;16.48;58.51
62946;BME280;52164;52.212;-1.010;2022-08-01T06:47:52;101008.21;;;16.53;58.51
62946;BME280;52164;52.212;-1.010;2022-08-01T06:50:17;101004.66;;;16.61;58.34
62946;BME280;52164;52.212;-1.010;2022-08-01T06:52:43;101004.73;;;16.68;58.22
62946;BME280;52164;52.212;-1.010;2022-08-01T06:55:09;101004.84;;;16.71;58.20
62946;BME280;52164;52.212;-1.010;2022-08-01T06:57:35;101010.17;;;16.76;57.93
62946;BME280;52164;52.212;-1.010;2022-08-01T07:00:04;101008.35;;;16.77;57.66
62946;BME280;52164;52.212;-1.010;2022-08-01T07:02:32;101011.22;;;16.77;57.56
62946;BME280;52164;52.212;-1.010;2022-08-01T07:04:58;101009.06;;;16.78;57.43
62946;BME280;52164;52.212;-1.010;2022-08-01T07:07:26;101009.88;;;16.83;57.18
62946;BME280;52164;52.212;-1.010;2022-08-01T07:09:52;101009.08;;;16.88;57.09
62946;BME280;52164;52.212;-1.010;2022-08-01T07:12:17;101011.31;;;16.95;56.88
62946;BME280;52164;52.212;-1.010;2022-08-01T07:14:43;101010.60;;;17.03;56.84
62946;BME280;52164;52.212;-1.010;2022-08-01T07:17:08;101009.69;;;17.14;56.79
62946;BME280;52164;52.212;-1.010;2022-08-01T07:19:34;101008.98;;;17.23;56.63
62946;BME280;52164;52.212;-1.010;2022-08-01T07:21:59;101006.17;;;17.28;56.54
62946;BME280;52164;52.212;-1.010;2022-08-01T07:24:25;101008.07;;;17.32;56.43
62946;BME280;52164;52.212;-1.010;2022-08-01T07:26:50;101006.30;;;17.39;56.24
62946;BME280;52164;52.212;-1.010;2022-08-01T07:29:16;101007.42;;;17.47;56.14
62946;BME280;52164;52.212;-1.010;2022-08-01T07:31:41;101008.30;;;17.56;55.83
62946;BME280;52164;52.212;-1.010;2022-08-01T07:34:07;101003.45;;;17.63;55.57
62946;BME280;52164;52.212;-1.010;2022-08-01T07:36:32;101002.56;;;17.71;55.32
62946;BME280;52164;52.212;-1.010;2022-08-01T07:38:58;101008.08;;;17.83;55.24
62946;BME280;52164;52.212;-1.010;2022-08-01T07:41:23;101013.49;;;17.93;54.85
62946;BME280;52164;52.212;-1.010;2022-08-01T07:43:49;101011.33;;;18.02;54.56
62946;BME280;52164;52.212;-1.010;2022-08-01T07:46:15;101019.05;;;18.11;54.28
62946;BME280;52164;52.212;-1.010;2022-08-01T07:48:41;101014.39;;;18.17;54.06
62946;BME280;52164;52.212;-1.010;2022-08-01T07:51:07;101013.41;;;18.20;53.51
62946;BME280;52164;52.212;-1.010;2022-08-01T07:53:34;101011.35;;;18.24;53.29
62946;BME280;52164;52.212;-1.010;2022-08-01T07:55:59;101017.05;;;18.26;53.08
62946;BME280;52164;52.212;-1.010;2022-08-01T07:58:25;101019.66;;;18.31;52.63
62946;BME280;52164;52.212;-1.010;2022-08-01T08:00:51;101021.02;;;18.35;52.12
62946;BME280;52164;52.212;-1.010;2022-08-01T08:03:16;101026.19;;;18.38;51.38
62946;BME280;52164;52.212;-1.010;2022-08-01T08:05:42;101024.71;;;18.38;51.16
62946;BME280;52164;52.212;-1.010;2022-08-01T08:08:08;101023.12;;;18.38;50.98
62946;BME280;52164;52.212;-1.010;2022-08-01T08:10:35;101022.54;;;18.39;50.94
62946;BME280;52164;52.212;-1.010;2022-08-01T08:13:01;101017.05;;;18.41;50.84
62946;BME280;52164;52.212;-1.010;2022-08-01T08:15:27;101023.91;;;18.50;50.80
62946;BME280;52164;52.212;-1.010;2022-08-01T08:17:53;101021.83;;;18.61;50.78
62946;BME280;52164;52.212;-1.010;2022-08-01T08:20:19;101022.20;;;18.74;50.32
62946;BME280;52164;52.212;-1.010;2022-08-01T08:22:50;101019.61;;;18.84;50.02
62946;BME280;52164;52.212;-1.010;2022-08-01T08:25:16;101019.55;;;18.94;49.71
62946;BME280;52164;52.212;-1.010;2022-08-01T08:27:42;101017.13;;;19.04;49.58
62946;BME280;52164;52.212;-1.010;2022-08-01T08:30:07;101014.27;;;19.15;49.51
62946;BME280;52164;52.212;-1.010;2022-08-01T08:32:34;101013.96;;;19.27;49.28
62946;BME280;52164;52.212;-1.010;2022-08-01T08:35:00;101014.95;;;19.30;49.14
62946;BME280;52164;52.212;-1.010;2022-08-01T08:37:26;101011.69;;;19.31;48.81
62946;BME280;52164;52.212;-1.010;2022-08-01T08:39:52;101013.55;;;19.29;48.92
62946;BME280;52164;52.212;-1.010;2022-08-01T08:42:18;101012.45;;;19.29;48.81
62946;BME280;52164;52.212;-1.010;2022-08-01T08:44:44;101013.84;;;19.31;48.75
62946;BME280;52164;52.212;-1.010;2022-08-01T08:47:12;101014.89;;;19.32;48.67
62946;BME280;52164;52.212;-1.010;2022-08-01T08:49:39;101012.00;;;19.32;48.33
62946;BME280;52164;52.212;-1.010;2022-08-01T08:52:07;101012.14;;;19.34;48.16
62946;BME280;52164;52.212;-1.010;2022-08-01T08:54:35;101007.02;;;19.35;47.97
62946;BME280;52164;52.212;-1.010;2022-08-01T08:57:02;101005.55;;;19.49;48.18
62946;BME280;52164;52.212;-1.010;2022-08-01T08:59:28;101002.34;;;19.66;48.33
62946;BME280;52164;52.212;-1.010;2022-08-01T09:01:54;101004.27;;;19.81;47.89
62946;BME280;52164;52.212;-1.010;2022-08-01T09:04:21;100998.73;;;19.97;47.52
62946;BME280;52164;52.212;-1.010;2022-08-01T09:06:48;101000.23;;;20.18;46.91
62946;BME280;52164;52.212;-1.010;2022-08-01T09:09:14;100996.83;;;20.39;46.55
62946;BME280;52164;52.212;-1.010;2022-08-01T09:11:39;101003.73;;;20.54;45.91
62946;BME280;52164;52.212;-1.010;2022-08-01T09:14:15;101000.98;;;20.67;45.44
62946;BME280;52164;52.212;-1.010;2022-08-01T09:17:08;100998.77;;;20.83;45.25
62946;BME280;52164;52.212;-1.010;2022-08-01T09:19:45;100999.23;;;21.02;45.10
62946;BME280;52164;52.212;-1.010;2022-08-01T09:22:18;100987.78;;;21.12;44.85
62946;BME280;52164;52.212;-1.010;2022-08-01T09:25:07;100987.91;;;21.14;44.32
62946;BME280;52164;52.212;-1.010;2022-08-01T09:27:34;100990.08;;;21.04;43.74
62946;BME280;52164;52.212;-1.010;2022-08-01T09:30:17;100991.67;;;20.95;43.91
62946;BME280;52164;52.212;-1.010;2022-08-01T09:33:03;100988.01;;;20.86;43.92
62946;BME280;52164;52.212;-1.010;2022-08-01T09:35:32;100992.78;;;20.79;43.92
62946;BME280;52164;52.212;-1.010;2022-08-01T09:38:20;100994.23;;;20.79;43.71
62946;BME280;52164;52.212;-1.010;2022-08-01T09:43:12;100990.95;;;20.89;43.63
62946;BME280;52164;52.212;-1.010;2022-08-01T09:45:38;100989.72;;;20.89;43.65
62946;BME280;52164;52.212;-1.010;2022-08-01T09:48:08;100982.25;;;20.89;43.52
62946;BME280;52164;52.212;-1.010;2022-08-01T09:50:43;100986.30;;;20.98;43.15
62946;BME280;52164;52.212;-1.010;2022-08-01T09:53:10;100990.04;;;21.10;42.66
62946;BME280;52164;52.212;-1.010;2022-08-01T09:55:37;100986.19;;;21.21;42.17
62946;BME280;52164;52.212;-1.010;2022-08-01T09:58:03;100986.95;;;21.35;42.24
62946;BME280;52164;52.212;-1.010;2022-08-01T10:00:30;100986.15;;;21.47;41.99
62946;BME280;52164;52.212;-1.010;2022-08-01T10:02:56;100989.89;;;21.54;41.69
62946;BME280;52164;52.212;-1.010;2022-08-01T10:05:31;100990.37;;;21.66;41.59
62946;BME280;52164;52.212;-1.010;2022-08-01T10:07:59;100997.07;;;21.80;41.31
62946;BME280;52164;52.212;-1.010;2022-08-01T10:10:26;100994.15;;;21.99;41.24
62946;BME280;52164;52.212;-1.010;2022-08-01T10:12:52;100992.63;;;22.14;40.99
62946;BME280;52164;52.212;-1.010;2022-08-01T10:15:20;100987.02;;;22.27;40.62
62946;BME280;52164;52.212;-1.010;2022-08-01T10:17:53;100980.83;;;22.41;40.35
62946;BME280;52164;52.212;-1.010;2022-08-01T10:20:20;100978.45;;;22.55;39.96
62946;BME280;52164;52.212;-1.010;2022-08-01T10:22:47;100978.56;;;22.74;40.01
62946;BME280;52164;52.212;-1.010;2022-08-01T10:25:13;100975.32;;;22.85;40.11
62946;BME280;52164;52.212;-1.010;2022-08-01T10:27:43;100974.61;;;22.93;39.67
62946;BME280;52164;52.212;-1.010;2022-08-01T10:30:11;100974.41;;;23.06;39.42
62946;BME280;52164;52.212;-1.010;2022-08-01T10:32:37;100966.45;;;23.17;39.42
62946;BME280;52164;52.212;-1.010;2022-08-01T10:35:05;100966.77;;;23.27;39.55
62946;BME280;52164;52.212;-1.010;2022-08-01T10:37:33;100964.98;;;23.42;39.22
62946;BME280;52164;52.212;-1.010;2022-08-01T10:39:59;100959.09;;;23.63;39.24
62946;BME280;52164;52.212;-1.010;2022-08-01T10:42:26;100965.12;;;23.82;38.98
62946;BME280;52164;52.212;-1.010;2022-08-01T10:44:53;100968.99;;;24.08;38.88
62946;BME280;52164;52.212;-1.010;2022-08-01T10:47:24;100970.30;;;24.29;38.04
62946;BME280;52164;52.212;-1.010;2022-08-01T10:49:51;100966.23;;;24.37;37.56
62946;BME280;52164;52.212;-1.010;2022-08-01T10:52:19;100966.88;;;24.39;37.32
62946;BME280;52164;52.212;-1.010;2022-08-01T10:54:46;100967.05;;;24.40;37.40
62946;BME280;52164;52.212;-1.010;2022-08-01T10:57:13;100964.60;;;24.41;37.22
62946;BME280;52164;52.212;-1.010;2022-08-01T10:59:54;100968.72;;;24.39;37.45
62946;BME280;52164;52.212;-1.010;2022-08-01T11:02:35;100971.31;;;24.31;37.32
62946;BME280;52164;52.212;-1.010;2022-08-01T11:05:20;100972.78;;;24.20;37.56
62946;BME280;52164;52.212;-1.010;2022-08-01T11:07:51;100971.30;;;24.17;37.50
62946;BME280;52164;52.212;-1.010;2022-08-01T11:10:25;100968.23;;;24.19;37.88
62946;BME280;52164;52.212;-1.010;2022-08-01T11:12:54;100959.13;;;24.16;37.52
62946;BME280;52164;52.212;-1.010;2022-08-01T11:15:22;100954.10;;;24.10;37.69
62946;BME280;52164;52.212;-1.010;2022-08-01T11:17:52;100953.79;;;24.09;37.72
62946;BME280;52164;52.212;-1.010;2022-08-01T11:20:23;100957.91;;;24.18;37.94
62946;BME280;52164;52.212;-1.010;2022-08-01T11:28:21;100950.45;;;24.72;37.38
62946;BME280;52164;52.212;-1.010;2022-08-01T11:30:50;100954.14;;;24.78;37.18
62946;BME280;52164;52.212;-1.010;2022-08-01T11:33:19;100950.63;;;24.75;37.30
62946;BME280;52164;52.212;-1.010;2022-08-01T11:36:18;100947.17;;;24.72;36.59
62946;BME280;52164;52.212;-1.010;2022-08-01T11:38:49;100941.14;;;24.90;36.89
62946;BME280;52164;52.212;-1.010;2022-08-01T11:41:22;100935.86;;;25.23;36.34
62946;BME280;52164;52.212;-1.010;2022-08-01T11:46:56;100934.73;;;25.90;35.60
62946;BME280;52164;52.212;-1.010;2022-08-01T11:49:26;100936.55;;;26.10;36.22
62946;BME280;52164;52.212;-1.010;2022-08-01T11:51:58;100931.02;;;26.32;35.60
62946;BME280;52164;52.212;-1.010;2022-08-01T11:54:27;100925.88;;;26.45;35.93
62946;BME280;52164;52.212;-1.010;2022-08-01T11:56:55;100927.63;;;26.52;35.39
62946;BME280;52164;52.212;-1.010;2022-08-01T11:59:21;100921.50;;;26.66;35.46
62946;BME280;52164;52.212;-1.010;2022-08-01T12:01:47;100916.95;;;26.75;35.27
62946;BME280;52164;52.212;-1.010;2022-08-01T12:04:13;100913.12;;;26.78;35.56
62946;BME280;52164;52.212;-1.010;2022-08-01T12:06:39;100911.04;;;26.82;35.10
62946;BME280;52164;52.212;-1.010;2022-08-01T12:09:21;100909.58;;;26.82;34.82
62946;BME280;52164;52.212;-1.010;2022-08-01T12:11:48;100909.10;;;26.83;35.09
62946;BME280;52164;52.212;-1.010;2022-08-01T12:14:17;100905.42;;;26.90;35.15
62946;BME280;52164;52.212;-1.010;2022-08-01T12:16:58;100903.86;;;26.95;35.03
62946;BME280;52164;52.212;-1.010;2022-08-01T12:19:24;100901.30;;;27.09;34.65
62946;BME280;52164;52.212;-1.010;2022-08-01T12:22:07;100899.84;;;27.26;34.77
62946;BME280;52164;52.212;-1.010;2022-08-01T12:24:35;100903.05;;;27.48;34.32
62946;BME280;52164;52.212;-1.010;2022-08-01T12:27:01;100897.73;;;27.68;34.03
62946;BME280;52164;52.212;-1.010;2022-08-01T12:29:34;100893.64;;;27.88;33.73
62946;BME280;52164;52.212;-1.010;2022-08-01T12:31:59;100888.95;;;28.02;33.69
62946;BME280;52164;52.212;-1.010;2022-08-01T12:34:27;100886.52;;;28.05;33.34
62946;BME280;52164;52.212;-1.010;2022-08-01T12:36:56;100886.34;;;28.10;33.37
62946;BME280;52164;52.212;-1.010;2022-08-01T12:39:29;100882.98;;;28.06;33.30
62946;BME280;52164;52.212;-1.010;2022-08-01T12:41:55;100875.90;;;27.82;33.39
62946;BME280;52164;52.212;-1.010;2022-08-01T12:44:20;100870.69;;;27.86;33.48
62946;BME280;52164;52.212;-1.010;2022-08-01T12:46:46;100864.73;;;27.99;33.24
62946;BME280;52164;52.212;-1.010;2022-08-01T12:49:12;100866.13;;;28.08;33.31
62946;BME280;52164;52.212;-1.010;2022-08-01T12:51:38;100865.70;;;28.17;33.11
62946;BME280;52164;52.212;-1.010;2022-08-01T12:54:04;100875.46;;;28.19;33.22
62946;BME280;52164;52.212;-1.010;2022-08-01T12:56:33;100872.44;;;28.12;33.17
62946;BME280;52164;52.212;-1.010;2022-08-01T12:58:59;100865.14;;;28.15;33.20
62946;BME280;52164;52.212;-1.010;2022-08-01T13:01:26;100861.48;;;28.33;33.42
62946;BME280;52164;52.212;-1.010;2022-08-01T13:04:07;100855.69;;;28.50;33.09